sensor_id;sensor_type;location;lat;lon;timestamp;temperature;humidity
827;DHT22;395;48.132;11.608;2023-03-31T00:01:35;11.70;6.90
827;DHT22;395;48.132;11.608;2023-03-31T00:04:07;11.70;7.00
827;DHT22;395;48.132;11.608;2023-03-31T00:06:37;11.70;6.90
827;DHT22;395;48.132;11.608;2023-03-31T00:09:11;11.70;6.50
827;DHT22;395;48.132;11.608;2023-03-31T00:11:38;11.70;6.60
827;DHT22;395;48.132;11.608;2023-03-31T00:14:04;11.70;6.70
827;DHT22;395;48.132;11.608;2023-03-31T00:16:35;11.70;6.90
827;DHT22;395;48.132;11.608;2023-03-31T00:19:02;11.70;6.60
827;DHT22;395;48.132;11.608;2023-03-31T00:21:28;11.70;6.50
827;DHT22;395;48.132;11.608;2023-03-31T00:24:03;11.70;6.60
827;DHT22;395;48.132;11.608;2023-03-31T00:26:30;11.70;6.30
827;DHT22;395;48.132;11.608;2023-03-31T00:28:56;11.70;6.60
827;DHT22;395;48.132;11.608;2023-03-31T00:31:23;11.70;6.10
827;DHT22;395;48.132;11.608;2023-03-31T00:33:49;11.70;6.20
827;DHT22;395;48.132;11.608;2023-03-31T00:36:15;11.60;6.30
827;DHT22;395;48.132;11.608;2023-03-31T00:38:56;11.70;6.60
827;DHT22;395;48.132;11.608;2023-03-31T00:41:24;11.70;6.50
827;DHT22;395;48.132;11.608;2023-03-31T00:44:20;11.70;7.10
827;DHT22;395;48.132;11.608;2023-03-31T00:46:56;11.70;6.60
827;DHT22;395;48.132;11.608;2023-03-31T00:49:27;11.80;6.60
827;DHT22;395;48.132;11.608;2023-03-31T00:51:58;11.70;6.20
827;DHT22;395;48.132;11.608;2023-03-31T00:54:27;11.70;6.10
827;DHT22;395;48.132;11.608;2023-03-31T00:56:55;11.70;6.00
827;DHT22;395;48.132;11.608;2023-03-31T00:59:26;11.70;6.30
827;DHT22;395;48.132;11.608;2023-03-31T01:01:53;11.70;6.30
827;DHT22;395;48.132;11.608;2023-03-31T01:04:24;11.80;6.40
827;DHT22;395;48.132;11.608;2023-03-31T01:07:08;11.70;6.30
827;DHT22;395;48.132;11.608;2023-03-31T01:09:37;11.70;6.20
827;DHT22;395;48.132;11.608;2023-03-31T01:12:06;11.70;5.90
827;DHT22;395;48.132;11.608;2023-03-31T01:14:33;11.70;6.20
827;DHT22;395;48.132;11.608;2023-03-31T01:16:59;11.70;6.30
827;DHT22;395;48.132;11.608;2023-03-31T01:28:17;11.80;5.60
827;DHT22;395;48.132;11.608;2023-03-31T01:33:42;11.80;5.80
827;DHT22;395;48.132;11.608;2023-03-31T01:36:31;11.80;5.60
827;DHT22;395;48.132;11.608;2023-03-31T01:44:19;11.80;5.50
827;DHT22;395;48.132;11.608;2023-03-31T01:47:00;11.80;5.50
827;DHT22;395;48.132;11.608;2023-03-31T01:54:52;11.80;4.70
827;DHT22;395;48.132;11.608;2023-03-31T01:57:31;11.80;4.70
827;DHT22;395;48.132;11.608;2023-03-31T02:02:35;11.90;4.80
827;DHT22;395;48.132;11.608;2023-03-31T02:05:11;11.90;4.80
827;DHT22;395;48.132;11.608;2023-03-31T02:08:02;11.90;4.80
827;DHT22;395;48.132;11.608;2023-03-31T02:10:30;11.90;4.80
827;DHT22;395;48.132;11.608;2023-03-31T02:12:59;11.90;4.70
827;DHT22;395;48.132;11.608;2023-03-31T02:15:28;11.90;4.80
827;DHT22;395;48.132;11.608;2023-03-31T02:17:57;11.90;4.80
827;DHT22;395;48.132;11.608;2023-03-31T02:20:26;11.90;4.60
827;DHT22;395;48.132;11.608;2023-03-31T02:22:54;11.90;4.40
827;DHT22;395;48.132;11.608;2023-03-31T02:25:29;12.00;4.70
827;DHT22;395;48.132;11.608;2023-03-31T02:27:59;11.90;4.40
827;DHT22;395;48.132;11.608;2023-03-31T02:30:39;11.90;4.20
827;DHT22;395;48.132;11.608;2023-03-31T02:33:05;11.90;4.70
827;DHT22;395;48.132;11.608;2023-03-31T02:35:32;11.90;4.20
827;DHT22;395;48.132;11.608;2023-03-31T02:37:59;11.90;4.10
827;DHT22;395;48.132;11.608;2023-03-31T02:40:25;11.90;3.80
827;DHT22;395;48.132;11.608;2023-03-31T02:42:52;11.90;4.00
827;DHT22;395;48.132;11.608;2023-03-31T02:48:29;11.90;4.10
827;DHT22;395;48.132;11.608;2023-03-31T02:59:06;11.90;4.80
827;DHT22;395;48.132;11.608;2023-03-31T03:07:30;12.00;4.00
827;DHT22;395;48.132;11.608;2023-03-31T03:15:24;11.90;4.80
827;DHT22;395;48.132;11.608;2023-03-31T03:17:51;12.00;4.90
827;DHT22;395;48.132;11.608;2023-03-31T03:20:19;12.00;4.90
827;DHT22;395;48.132;11.608;2023-03-31T03:22:45;12.00;5.60
827;DHT22;395;48.132;11.608;2023-03-31T03:25:13;12.00;6.10
827;DHT22;395;48.132;11.608;2023-03-31T03:27:39;12.00;6.80
827;DHT22;395;48.132;11.608;2023-03-31T03:30:08;12.00;6.50
827;DHT22;395;48.132;11.608;2023-03-31T03:32:35;12.00;7.50
827;DHT22;395;48.132;11.608;2023-03-31T03:35:01;12.00;6.70
827;DHT22;395;48.132;11.608;2023-03-31T03:37:28;12.00;6.20
827;DHT22;395;48.132;11.608;2023-03-31T03:39:54;12.00;5.90
827;DHT22;395;48.132;11.608;2023-03-31T03:42:20;11.90;5.80
827;DHT22;395;48.132;11.608;2023-03-31T03:44:46;11.90;6.00
827;DHT22;395;48.132;11.608;2023-03-31T03:47:11;11.90;7.20
827;DHT22;395;48.132;11.608;2023-03-31T03:49:37;11.90;6.80
827;DHT22;395;48.132;11.608;2023-03-31T03:52:03;11.80;7.30
827;DHT22;395;48.132;11.608;2023-03-31T03:54:28;11.80;7.60
827;DHT22;395;48.132;11.608;2023-03-31T03:56:54;11.80;8.10
827;DHT22;395;48.132;11.608;2023-03-31T03:59:20;11.90;8.80
827;DHT22;395;48.132;11.608;2023-03-31T04:01:45;11.80;9.40
827;DHT22;395;48.132;11.608;2023-03-31T04:04:11;11.80;9.90
827;DHT22;395;48.132;11.608;2023-03-31T04:06:36;11.80;10.40
827;DHT22;395;48.132;11.608;2023-03-31T04:09:03;11.80;10.20
827;DHT22;395;48.132;11.608;2023-03-31T04:11:29;11.70;10.80
827;DHT22;395;48.132;11.608;2023-03-31T04:13:55;11.70;11.40
827;DHT22;395;48.132;11.608;2023-03-31T04:16:20;11.70;11.90
827;DHT22;395;48.132;11.608;2023-03-31T04:18:47;11.70;12.10
827;DHT22;395;48.132;11.608;2023-03-31T04:21:14;11.70;12.10
827;DHT22;395;48.132;11.608;2023-03-31T04:23:48;11.80;12.50
827;DHT22;395;48.132;11.608;2023-03-31T04:26:16;11.80;13.10
827;DHT22;395;48.132;11.608;2023-03-31T04:28:41;11.80;13.30
827;DHT22;395;48.132;11.608;2023-03-31T04:31:12;11.80;13.10
827;DHT22;395;48.132;11.608;2023-03-31T04:33:50;11.80;13.10
827;DHT22;395;48.132;11.608;2023-03-31T04:36:16;11.80;13.00
827;DHT22;395;48.132;11.608;2023-03-31T04:38:49;11.80;13.00
827;DHT22;395;48.132;11.608;2023-03-31T04:41:19;11.80;13.10
827;DHT22;395;48.132;11.608;2023-03-31T04:43:45;11.80;13.30
827;DHT22;395;48.132;11.608;2023-03-31T04:46:10;11.80;13.60
827;DHT22;395;48.132;11.608;2023-03-31T04:48:36;11.80;13.60
827;DHT22;395;48.132;11.608;2023-03-31T04:51:02;11.80;13.90
827;DHT22;395;48.132;11.608;2023-03-31T04:53:28;11.80;14.20
827;DHT22;395;48.132;11.608;2023-03-31T04:55:54;11.80;14.20
827;DHT22;395;48.132;11.608;2023-03-31T04:58:19;11.80;14.50
827;DHT22;395;48.132;11.608;2023-03-31T05:00:45;11.80;14.80
827;DHT22;395;48.132;11.608;2023-03-31T05:03:11;11.80;15.00
827;DHT22;395;48.132;11.608;2023-03-31T05:05:36;11.80;15.30
827;DHT22;395;48.132;11.608;2023-03-31T05:08:03;11.80;15.50
827;DHT22;395;48.132;11.608;2023-03-31T05:10:29;11.80;15.70
827;DHT22;395;48.132;11.608;2023-03-31T05:12:55;11.80;15.80
827;DHT22;395;48.132;11.608;2023-03-31T05:15:21;11.80;15.80
827;DHT22;395;48.132;11.608;2023-03-31T05:17:49;11.80;15.80
827;DHT22;395;48.132;11.608;2023-03-31T05:20:15;11.70;15.80
827;DHT22;395;48.132;11.608;2023-03-31T05:22:41;11.70;15.80
827;DHT22;395;48.132;11.608;2023-03-31T05:25:08;11.70;15.80
827;DHT22;395;48.132;11.608;2023-03-31T05:27:34;11.70;15.80
827;DHT22;395;48.132;11.608;2023-03-31T05:30:02;11.70;15.80
827;DHT22;395;48.132;11.608;2023-03-31T05:32:28;11.70;15.80
827;DHT22;395;48.132;11.608;2023-03-31T05:34:53;11.70;16.00
827;DHT22;395;48.132;11.608;2023-03-31T05:37:23;11.70;16.20
827;DHT22;395;48.132;11.608;2023-03-31T05:39:49;11.70;16.30
827;DHT22;395;48.132;11.608;2023-03-31T05:42:15;11.70;16.40
827;DHT22;395;48.132;11.608;2023-03-31T05:44:41;11.70;16.70
827;DHT22;395;48.132;11.608;2023-03-31T05:47:07;11.70;17.20
827;DHT22;395;48.132;11.608;2023-03-31T05:49:33;11.70;16.80
827;DHT22;395;48.132;11.608;2023-03-31T05:51:58;11.70;16.80
827;DHT22;395;48.132;11.608;2023-03-31T05:54:24;11.70;16.80
827;DHT22;395;48.132;11.608;2023-03-31T05:56:51;11.70;17.10
827;DHT22;395;48.132;11.608;2023-03-31T05:59:17;11.70;17.20
827;DHT22;395;48.132;11.608;2023-03-31T06:01:43;11.70;17.20
827;DHT22;395;48.132;11.608;2023-03-31T06:04:08;11.70;17.30
827;DHT22;395;48.132;11.608;2023-03-31T06:06:34;11.70;17.70
827;DHT22;395;48.132;11.608;2023-03-31T06:09:03;11.80;17.80
827;DHT22;395;48.132;11.608;2023-03-31T06:11:30;11.80;17.50
827;DHT22;395;48.132;11.608;2023-03-31T06:13:56;11.80;17.70
827;DHT22;395;48.132;11.608;2023-03-31T06:16:21;11.90;18.00
827;DHT22;395;48.132;11.608;2023-03-31T06:18:47;11.80;18.00
827;DHT22;395;48.132;11.608;2023-03-31T06:21:16;11.80;18.00
827;DHT22;395;48.132;11.608;2023-03-31T06:23:42;11.90;18.60
827;DHT22;395;48.132;11.608;2023-03-31T06:26:18;11.90;18.20
827;DHT22;395;48.132;11.608;2023-03-31T06:28:44;11.90;18.50
827;DHT22;395;48.132;11.608;2023-03-31T06:31:19;12.00;18.10
827;DHT22;395;48.132;11.608;2023-03-31T06:33:45;12.00;18.40
827;DHT22;395;48.132;11.608;2023-03-31T06:36:13;12.00;18.10
827;DHT22;395;48.132;11.608;2023-03-31T06:38:40;12.10;18.10
827;DHT22;395;48.132;11.608;2023-03-31T06:41:07;12.10;18.00
827;DHT22;395;48.132;11.608;2023-03-31T06:43:33;12.10;17.80
827;DHT22;395;48.132;11.608;2023-03-31T06:46:00;12.10;17.20
827;DHT22;395;48.132;11.608;2023-03-31T06:48:26;12.10;17.30
827;DHT22;395;48.132;11.608;2023-03-31T06:50:53;12.20;17.50
827;DHT22;395;48.132;11.608;2023-03-31T06:53:19;12.20;17.50
827;DHT22;395;48.132;11.608;2023-03-31T06:55:46;12.20;17.60
827;DHT22;395;48.132;11.608;2023-03-31T06:58:12;12.20;17.40
827;DHT22;395;48.132;11.608;2023-03-31T07:00:37;12.20;17.30
827;DHT22;395;48.132;11.608;2023-03-31T07:03:04;12.30;16.80
827;DHT22;395;48.132;11.608;2023-03-31T07:05:30;12.30;16.50
827;DHT22;395;48.132;11.608;2023-03-31T07:07:58;12.30;16.20
827;DHT22;395;48.132;11.608;2023-03-31T07:10:26;12.30;16.10
827;DHT22;395;48.132;11.608;2023-03-31T07:12:52;12.30;15.50
827;DHT22;395;48.132;11.608;2023-03-31T07:15:17;12.30;15.30
827;DHT22;395;48.132;11.608;2023-03-31T07:17:43;12.30;15.30
827;DHT22;395;48.132;11.608;2023-03-31T07:20:11;12.20;15.40
827;DHT22;395;48.132;11.608;2023-03-31T07:22:38;12.00;15.10
827;DHT22;395;48.132;11.608;2023-03-31T07:25:06;11.80;16.50
827;DHT22;395;48.132;11.608;2023-03-31T07:27:32;11.80;16.30
827;DHT22;395;48.132;11.608;2023-03-31T07:29:57;11.90;16.60
827;DHT22;395;48.132;11.608;2023-03-31T07:32:23;12.00;16.60
827;DHT22;395;48.132;11.608;2023-03-31T07:34:49;12.00;16.60
827;DHT22;395;48.132;11.608;2023-03-31T07:37:14;11.90;16.10
827;DHT22;395;48.132;11.608;2023-03-31T07:39:40;11.90;16.30
827;DHT22;395;48.132;11.608;2023-03-31T07:42:05;12.00;16.60
827;DHT22;395;48.132;11.608;2023-03-31T07:44:35;12.00;17.10
827;DHT22;395;48.132;11.608;2023-03-31T07:47:02;12.00;17.60
827;DHT22;395;48.132;11.608;2023-03-31T07:49:31;12.00;18.00
827;DHT22;395;48.132;11.608;2023-03-31T07:51:57;12.00;18.10
827;DHT22;395;48.132;11.608;2023-03-31T07:54:23;12.10;18.40
827;DHT22;395;48.132;11.608;2023-03-31T07:56:49;12.10;19.20
827;DHT22;395;48.132;11.608;2023-03-31T07:59:15;12.10;18.90
827;DHT22;395;48.132;11.608;2023-03-31T08:01:40;12.10;19.20
827;DHT22;395;48.132;11.608;2023-03-31T08:04:06;12.10;19.60
827;DHT22;395;48.132;11.608;2023-03-31T08:06:32;12.20;19.70
827;DHT22;395;48.132;11.608;2023-03-31T08:08:58;12.20;20.20
827;DHT22;395;48.132;11.608;2023-03-31T08:11:24;12.20;20.20
827;DHT22;395;48.132;11.608;2023-03-31T08:13:51;12.30;20.40
827;DHT22;395;48.132;11.608;2023-03-31T08:16:17;12.30;20.30
827;DHT22;395;48.132;11.608;2023-03-31T08:18:42;12.40;20.50
827;DHT22;395;48.132;11.608;2023-03-31T08:21:08;12.40;20.70
827;DHT22;395;48.132;11.608;2023-03-31T08:23:36;12.40;20.70
827;DHT22;395;48.132;11.608;2023-03-31T08:26:11;12.40;20.30
827;DHT22;395;48.132;11.608;2023-03-31T08:28:37;12.50;19.90
827;DHT22;395;48.132;11.608;2023-03-31T08:31:07;12.50;19.90
827;DHT22;395;48.132;11.608;2023-03-31T08:33:33;12.50;19.90
827;DHT22;395;48.132;11.608;2023-03-31T08:36:03;12.50;19.80
827;DHT22;395;48.132;11.608;2023-03-31T08:38:30;12.50;19.60
827;DHT22;395;48.132;11.608;2023-03-31T08:41:05;12.50;19.30
827;DHT22;395;48.132;11.608;2023-03-31T08:43:35;12.50;19.00
827;DHT22;395;48.132;11.608;2023-03-31T08:46:04;12.50;18.80
827;DHT22;395;48.132;11.608;2023-03-31T08:48:33;12.50;18.00
827;DHT22;395;48.132;11.608;2023-03-31T08:51:21;12.50;16.50
827;DHT22;395;48.132;11.608;2023-03-31T08:53:57;12.50;16.30
827;DHT22;395;48.132;11.608;2023-03-31T08:56:25;12.40;14.30
827;DHT22;395;48.132;11.608;2023-03-31T08:58:52;12.40;13.30
827;DHT22;395;48.132;11.608;2023-03-31T09:01:41;12.20;9.80
827;DHT22;395;48.132;11.608;2023-03-31T09:12:10;12.20;8.40
827;DHT22;395;48.132;11.608;2023-03-31T09:14:53;12.10;8.70
827;DHT22;395;48.132;11.608;2023-03-31T09:17:29;12.20;7.40
827;DHT22;395;48.132;11.608;2023-03-31T09:20:04;12.30;8.30
827;DHT22;395;48.132;11.608;2023-03-31T09:22:38;12.40;8.50
827;DHT22;395;48.132;11.608;2023-03-31T09:25:12;12.40;8.90
827;DHT22;395;48.132;11.608;2023-03-31T09:27:41;12.50;8.40
827;DHT22;395;48.132;11.608;2023-03-31T09:30:15;12.50;8.60
827;DHT22;395;48.132;11.608;2023-03-31T09:32:42;12.50;8.10
827;DHT22;395;48.132;11.608;2023-03-31T09:35:17;12.50;8.70
827;DHT22;395;48.132;11.608;2023-03-31T09:37:45;12.60;9.20
827;DHT22;395;48.132;11.608;2023-03-31T09:40:23;12.50;8.50
827;DHT22;395;48.132;11.608;2023-03-31T09:45:43;12.60;8.20
827;DHT22;395;48.132;11.608;2023-03-31T09:48:17;12.70;8.20
827;DHT22;395;48.132;11.608;2023-03-31T09:51:00;12.80;8.90
827;DHT22;395;48.132;11.608;2023-03-31T09:53:44;12.90;8.40
827;DHT22;395;48.132;11.608;2023-03-31T09:56:11;12.80;7.80
827;DHT22;395;48.132;11.608;2023-03-31T09:58:43;12.80;6.40
827;DHT22;395;48.132;11.608;2023-03-31T10:01:11;12.70;6.30
827;DHT22;395;48.132;11.608;2023-03-31T10:03:50;12.70;5.90
827;DHT22;395;48.132;11.608;2023-03-31T10:06:17;12.80;6.00
827;DHT22;395;48.132;11.608;2023-03-31T10:08:58;12.80;6.80
827;DHT22;395;48.132;11.608;2023-03-31T10:11:25;12.80;7.20
827;DHT22;395;48.132;11.608;2023-03-31T10:14:03;12.90;7.80
827;DHT22;395;48.132;11.608;2023-03-31T10:16:42;13.00;7.10
827;DHT22;395;48.132;11.608;2023-03-31T10:19:26;13.00;6.90
827;DHT22;395;48.132;11.608;2023-03-31T10:22:00;13.10;7.00
827;DHT22;395;48.132;11.608;2023-03-31T10:24:36;13.00;6.70
827;DHT22;395;48.132;11.608;2023-03-31T10:27:05;13.00;7.40
827;DHT22;395;48.132;11.608;2023-03-31T10:29:33;13.10;7.90
827;DHT22;395;48.132;11.608;2023-03-31T10:32:17;13.10;7.40
827;DHT22;395;48.132;11.608;2023-03-31T10:34:45;13.10;7.40
827;DHT22;395;48.132;11.608;2023-03-31T10:37:18;13.20;7.20
827;DHT22;395;48.132;11.608;2023-03-31T10:39:44;13.20;7.40
827;DHT22;395;48.132;11.608;2023-03-31T10:42:20;13.20;7.20
827;DHT22;395;48.132;11.608;2023-03-31T10:44:46;13.20;7.20
827;DHT22;395;48.132;11.608;2023-03-31T10:49:39;13.30;6.70
827;DHT22;395;48.132;11.608;2023-03-31T10:52:24;13.40;6.50
827;DHT22;395;48.132;11.608;2023-03-31T10:54:59;13.50;5.90
827;DHT22;395;48.132;11.608;2023-03-31T10:57:44;13.50;5.90
827;DHT22;395;48.132;11.608;2023-03-31T11:00:31;13.50;5.90
827;DHT22;395;48.132;11.608;2023-03-31T11:03:11;13.60;5.40
827;DHT22;395;48.132;11.608;2023-03-31T11:19:37;13.80;2.30
827;DHT22;395;48.132;11.608;2023-03-31T11:22:28;13.80;3.60
827;DHT22;395;48.132;11.608;2023-03-31T11:25:13;13.80;4.70
827;DHT22;395;48.132;11.608;2023-03-31T11:28:36;13.60;4.00
827;DHT22;395;48.132;11.608;2023-03-31T11:41:15;12.30;12.50
827;DHT22;395;48.132;11.608;2023-03-31T11:46:23;11.90;9.50
827;DHT22;395;48.132;11.608;2023-03-31T11:48:54;11.80;9.60
827;DHT22;395;48.132;11.608;2023-03-31T11:54:26;12.00;13.20
827;DHT22;395;48.132;11.608;2023-03-31T11:56:54;12.00;11.30
827;DHT22;395;48.132;11.608;2023-03-31T11:59:22;12.10;11.70
827;DHT22;395;48.132;11.608;2023-03-31T12:02:14;12.20;11.90
827;DHT22;395;48.132;11.608;2023-03-31T12:04:51;12.10;9.40
827;DHT22;395;48.132;11.608;2023-03-31T12:12:34;12.20;9.70
827;DHT22;395;48.132;11.608;2023-03-31T12:15:23;12.30;10.00
827;DHT22;395;48.132;11.608;2023-03-31T12:18:07;12.40;8.30
827;DHT22;395;48.132;11.608;2023-03-31T12:20:38;12.40;7.40
827;DHT22;395;48.132;11.608;2023-03-31T12:23:11;12.50;9.50
827;DHT22;395;48.132;11.608;2023-03-31T12:25:57;12.70;8.80
827;DHT22;395;48.132;11.608;2023-03-31T12:28:25;12.70;9.10
827;DHT22;395;48.132;11.608;2023-03-31T12:30:53;12.70;8.00
827;DHT22;395;48.132;11.608;2023-03-31T12:33:42;12.60;5.90
827;DHT22;395;48.132;11.608;2023-03-31T12:36:34;12.70;6.70
827;DHT22;395;48.132;11.608;2023-03-31T12:53:20;12.70;3.60
827;DHT22;395;48.132;11.608;2023-03-31T12:55:54;12.90;2.10
827;DHT22;395;48.132;11.608;2023-03-31T13:03:53;12.90;1.70
827;DHT22;395;48.132;11.608;2023-03-31T13:16:45;13.10;1.00
827;DHT22;395;48.132;11.608;2023-03-31T13:21:57;13.00;1.00
827;DHT22;395;48.132;11.608;2023-03-31T13:24:24;13.00;1.00
827;DHT22;395;48.132;11.608;2023-03-31T13:26:52;12.70;1.00
827;DHT22;395;48.132;11.608;2023-03-31T13:29:21;12.70;1.00
827;DHT22;395;48.132;11.608;2023-03-31T13:34:58;12.80;1.00
827;DHT22;395;48.132;11.608;2023-03-31T13:37:52;12.90;1.00
827;DHT22;395;48.132;11.608;2023-03-31T13:43:37;12.80;1.00
827;DHT22;395;48.132;11.608;2023-03-31T13:46:07;12.80;1.00
827;DHT22;395;48.132;11.608;2023-03-31T14:07:43;13.20;1.00
827;DHT22;395;48.132;11.608;2023-03-31T14:13:07;13.40;1.00
827;DHT22;395;48.132;11.608;2023-03-31T14:15:35;13.50;1.00
827;DHT22;395;48.132;11.608;2023-03-31T14:18:03;13.50;1.00
827;DHT22;395;48.132;11.608;2023-03-31T14:20:31;13.50;1.00
827;DHT22;395;48.132;11.608;2023-03-31T14:23:07;13.60;1.00
827;DHT22;395;48.132;11.608;2023-03-31T14:39:02;13.50;1.00
827;DHT22;395;48.132;11.608;2023-03-31T14:41:28;13.50;1.00
827;DHT22;395;48.132;11.608;2023-03-31T14:43:56;13.30;1.00
827;DHT22;395;48.132;11.608;2023-03-31T14:46:22;13.10;1.00
827;DHT22;395;48.132;11.608;2023-03-31T14:48:50;12.90;1.00
827;DHT22;395;48.132;11.608;2023-03-31T14:51:18;12.50;1.00
827;DHT22;395;48.132;11.608;2023-03-31T14:53:57;12.30;1.00
827;DHT22;395;48.132;11.608;2023-03-31T14:56:33;11.90;1.00
827;DHT22;395;48.132;11.608;2023-03-31T14:59:02;11.80;1.00
827;DHT22;395;48.132;11.608;2023-03-31T15:01:31;11.50;1.00
827;DHT22;395;48.132;11.608;2023-03-31T15:04:11;11.40;1.00
827;DHT22;395;48.132;11.608;2023-03-31T15:06:39;11.40;1.00
827;DHT22;395;48.132;11.608;2023-03-31T15:09:09;11.40;1.00
827;DHT22;395;48.132;11.608;2023-03-31T15:11:38;11.50;1.00
827;DHT22;395;48.132;11.608;2023-03-31T15:14:03;11.50;1.00
827;DHT22;395;48.132;11.608;2023-03-31T15:16:42;11.60;1.00
827;DHT22;395;48.132;11.608;2023-03-31T15:21:44;11.80;1.00
827;DHT22;395;48.132;11.608;2023-03-31T15:24:12;11.80;1.00
827;DHT22;395;48.132;11.608;2023-03-31T15:26:46;11.90;1.00
827;DHT22;395;48.132;11.608;2023-03-31T15:29:19;11.90;1.00
827;DHT22;395;48.132;11.608;2023-03-31T15:31:46;12.10;1.00
827;DHT22;395;48.132;11.608;2023-03-31T15:34:26;12.10;1.00
827;DHT22;395;48.132;11.608;2023-03-31T15:36:54;12.30;1.00
827;DHT22;395;48.132;11.608;2023-03-31T15:39:22;12.30;1.00
827;DHT22;395;48.132;11.608;2023-03-31T15:41:48;12.50;1.00
827;DHT22;395;48.132;11.608;2023-03-31T15:49:32;12.40;1.00
827;DHT22;395;48.132;11.608;2023-03-31T15:51:58;12.50;1.00
827;DHT22;395;48.132;11.608;2023-03-31T15:54:39;12.50;1.00
827;DHT22;395;48.132;11.608;2023-03-31T15:57:07;12.50;1.00
827;DHT22;395;48.132;11.608;2023-03-31T15:59:45;12.50;1.00
827;DHT22;395;48.132;11.608;2023-03-31T16:02:16;12.50;1.00
827;DHT22;395;48.132;11.608;2023-03-31T16:04:47;12.40;1.00
827;DHT22;395;48.132;11.608;2023-03-31T16:07:25;12.50;1.00
827;DHT22;395;48.132;11.608;2023-03-31T16:09:56;12.60;1.00
827;DHT22;395;48.132;11.608;2023-03-31T16:12:30;12.60;1.00
827;DHT22;395;48.132;11.608;2023-03-31T16:15:02;12.60;1.00
827;DHT22;395;48.132;11.608;2023-03-31T16:17:33;12.70;1.00
827;DHT22;395;48.132;11.608;2023-03-31T16:20:09;12.60;1.00
827;DHT22;395;48.132;11.608;2023-03-31T16:22:44;12.80;1.00
827;DHT22;395;48.132;11.608;2023-03-31T16:25:18;12.90;1.00
827;DHT22;395;48.132;11.608;2023-03-31T16:27:47;13.00;1.00
827;DHT22;395;48.132;11.608;2023-03-31T16:30:16;12.90;1.00
827;DHT22;395;48.132;11.608;2023-03-31T16:33:04;13.00;1.00
827;DHT22;395;48.132;11.608;2023-03-31T16:35:38;13.00;1.00
827;DHT22;395;48.132;11.608;2023-03-31T16:38:05;12.90;1.00
827;DHT22;395;48.132;11.608;2023-03-31T16:40:39;13.00;1.00
827;DHT22;395;48.132;11.608;2023-03-31T16:43:13;12.80;1.00
827;DHT22;395;48.132;11.608;2023-03-31T16:45:40;12.80;1.00
827;DHT22;395;48.132;11.608;2023-03-31T16:48:07;12.90;1.00
827;DHT22;395;48.132;11.608;2023-03-31T16:50:33;12.80;1.00
827;DHT22;395;48.132;11.608;2023-03-31T16:53:00;12.70;1.00
827;DHT22;395;48.132;11.608;2023-03-31T16:55:26;12.50;1.00
827;DHT22;395;48.132;11.608;2023-03-31T16:57:52;12.60;1.00
827;DHT22;395;48.132;11.608;2023-03-31T17:00:18;12.60;1.00
827;DHT22;395;48.132;11.608;2023-03-31T17:02:44;12.40;1.00
827;DHT22;395;48.132;11.608;2023-03-31T17:05:10;12.10;1.00
827;DHT22;395;48.132;11.608;2023-03-31T17:07:36;11.60;1.00
827;DHT22;395;48.132;11.608;2023-03-31T17:10:02;11.10;3.30
827;DHT22;395;48.132;11.608;2023-03-31T17:12:28;10.90;4.20
827;DHT22;395;48.132;11.608;2023-03-31T17:14:53;10.60;4.60
827;DHT22;395;48.132;11.608;2023-03-31T17:17:19;10.50;7.40
827;DHT22;395;48.132;11.608;2023-03-31T17:19:45;10.60;10.10
827;DHT22;395;48.132;11.608;2023-03-31T17:22:10;10.60;9.50
827;DHT22;395;48.132;11.608;2023-03-31T17:24:36;10.60;9.20
827;DHT22;395;48.132;11.608;2023-03-31T17:27:02;10.40;7.60
827;DHT22;395;48.132;11.608;2023-03-31T17:29:27;10.50;9.40
827;DHT22;395;48.132;11.608;2023-03-31T17:31:53;10.40;8.60
827;DHT22;395;48.132;11.608;2023-03-31T17:34:18;10.40;10.30
827;DHT22;395;48.132;11.608;2023-03-31T17:36:44;10.40;10.40
827;DHT22;395;48.132;11.608;2023-03-31T17:39:10;10.30;8.60
827;DHT22;395;48.132;11.608;2023-03-31T17:41:36;10.30;7.50
827;DHT22;395;48.132;11.608;2023-03-31T17:44:02;10.40;9.60
827;DHT22;395;48.132;11.608;2023-03-31T17:46:29;10.50;8.80
827;DHT22;395;48.132;11.608;2023-03-31T17:48:55;10.40;7.10
827;DHT22;395;48.132;11.608;2023-03-31T17:51:23;10.50;9.20
827;DHT22;395;48.132;11.608;2023-03-31T17:53:48;10.60;9.00
827;DHT22;395;48.132;11.608;2023-03-31T17:56:15;10.60;8.20
827;DHT22;395;48.132;11.608;2023-03-31T17:58:41;10.60;8.30
827;DHT22;395;48.132;11.608;2023-03-31T18:01:08;10.60;6.50
827;DHT22;395;48.132;11.608;2023-03-31T18:03:34;10.60;5.00
827;DHT22;395;48.132;11.608;2023-03-31T18:06:08;10.70;5.20
827;DHT22;395;48.132;11.608;2023-03-31T18:08:36;10.70;4.80
827;DHT22;395;48.132;11.608;2023-03-31T18:11:04;10.80;4.40
827;DHT22;395;48.132;11.608;2023-03-31T18:13:33;10.80;4.00
827;DHT22;395;48.132;11.608;2023-03-31T18:16:00;10.80;2.70
827;DHT22;395;48.132;11.608;2023-03-31T18:18:27;10.80;1.80
827;DHT22;395;48.132;11.608;2023-03-31T18:20:54;10.80;1.10
827;DHT22;395;48.132;11.608;2023-03-31T18:23:20;10.80;1.00
827;DHT22;395;48.132;11.608;2023-03-31T18:25:46;10.80;1.00
827;DHT22;395;48.132;11.608;2023-03-31T18:28:13;10.70;1.00
827;DHT22;395;48.132;11.608;2023-03-31T18:30:39;10.70;1.00
827;DHT22;395;48.132;11.608;2023-03-31T18:33:05;10.70;1.00
827;DHT22;395;48.132;11.608;2023-03-31T18:35:31;10.60;1.00
827;DHT22;395;48.132;11.608;2023-03-31T18:37:57;10.60;1.00
827;DHT22;395;48.132;11.608;2023-03-31T18:40:23;10.70;1.00
827;DHT22;395;48.132;11.608;2023-03-31T18:42:48;10.70;1.00
827;DHT22;395;48.132;11.608;2023-03-31T18:45:15;10.70;1.00
827;DHT22;395;48.132;11.608;2023-03-31T18:47:41;10.80;1.00
827;DHT22;395;48.132;11.608;2023-03-31T18:50:07;10.70;1.00
827;DHT22;395;48.132;11.608;2023-03-31T18:52:34;10.70;1.00
827;DHT22;395;48.132;11.608;2023-03-31T18:55:01;10.70;1.00
827;DHT22;395;48.132;11.608;2023-03-31T18:57:27;10.70;1.00
827;DHT22;395;48.132;11.608;2023-03-31T18:59:53;10.60;1.00
827;DHT22;395;48.132;11.608;2023-03-31T19:02:19;10.60;1.00
827;DHT22;395;48.132;11.608;2023-03-31T19:04:46;10.60;1.00
827;DHT22;395;48.132;11.608;2023-03-31T19:07:16;10.60;1.00
827;DHT22;395;48.132;11.608;2023-03-31T19:09:42;10.50;1.00
827;DHT22;395;48.132;11.608;2023-03-31T19:12:07;10.60;1.00
827;DHT22;395;48.132;11.608;2023-03-31T19:14:33;10.60;1.00
827;DHT22;395;48.132;11.608;2023-03-31T19:17:03;10.40;1.00
827;DHT22;395;48.132;11.608;2023-03-31T19:19:28;10.50;1.00
827;DHT22;395;48.132;11.608;2023-03-31T19:21:55;10.50;1.00
827;DHT22;395;48.132;11.608;2023-03-31T19:24:21;10.60;1.00
827;DHT22;395;48.132;11.608;2023-03-31T19:26:46;10.50;1.00
827;DHT22;395;48.132;11.608;2023-03-31T19:29:12;10.50;1.00
827;DHT22;395;48.132;11.608;2023-03-31T19:31:38;10.40;1.00
827;DHT22;395;48.132;11.608;2023-03-31T19:34:06;10.40;1.00
827;DHT22;395;48.132;11.608;2023-03-31T19:36:33;10.40;1.00
827;DHT22;395;48.132;11.608;2023-03-31T19:39:00;10.40;1.00
827;DHT22;395;48.132;11.608;2023-03-31T19:41:26;10.40;1.00
827;DHT22;395;48.132;11.608;2023-03-31T19:43:52;10.30;1.00